Aviation Digital Data Service (ADDS)

Output produced by METARs form (1259 UTC 21 February 2018)
found at http://www.aviationweather.gov/adds/metars/
 
VTBD 211230Z 18007KT 9999 FEW025 29/24 Q1007 NOSIG
TAF VTBD 201100Z 2012/2118 20010KT 9999 FEW030 
     BECMG 2018/2020 12005KT 8000 NSC 
     BECMG 2101/2103 19010KT 9999 FEW020 
     TEMPO 2106/2112 15010G20KT 5000 TSRA FEW018CB SCT035
       
VTCC 211230Z 00000KT 8000 FEW040 28/17 Q1008 NOSIG
TAF VTCC 201100Z 2012/2118 24005KT 9999 FEW035
       
TAF VTCT 201100Z 2012/2118 26005KT 9999 FEW030
       
VTSS 211230Z 06008KT 9999 SCT020 28/24 Q1008 NOSIG
VTSP 211230Z 30005KT 8000 FEW020 28/22 Q1008 NOSIG
TAF VTSP 201100Z 2012/2118 08008KT 9999 FEW018 
     BECMG 2016/2018 00000KT 
     BECMG 2100/2102 08010KT 
     TEMPO 2110/2114 VRB10G20KT 5000 TSRA FEW018CB SCT020 BKN100
       
VTSM 211230Z 13005KT 9999 FEW020 28/22 Q1009
VTBU 211230Z 18006KT 7000 FEW020 28/22 Q1008 NOSIG